createdAt,value
2022-10-21T00:00:18.551Z,6.60
2022-10-21T00:02:45.905Z,5.67
2022-10-21T00:05:13.078Z,5.87
2022-10-21T00:07:39.892Z,6.70
2022-10-21T00:10:07.414Z,6.73
2022-10-21T00:12:35.121Z,6.13
2022-10-21T00:15:04.522Z,6.67
2022-10-21T00:17:31.330Z,6.77
2022-10-21T00:19:58.008Z,7.50
2022-10-21T00:22:24.734Z,6.07
2022-10-21T00:24:51.389Z,6.83
2022-10-21T00:27:18.058Z,6.70
2022-10-21T00:29:44.765Z,6.30
2022-10-21T00:32:11.429Z,5.97
2022-10-21T00:34:38.153Z,5.93
2022-10-21T00:37:04.937Z,6.03
2022-10-21T00:39:31.641Z,6.40
2022-10-21T00:41:58.305Z,6.30
2022-10-21T00:44:27.020Z,6.87
2022-10-21T00:47:01.870Z,6.20
2022-10-21T00:49:42.698Z,6.27
2022-10-21T00:52:14.710Z,5.70
2022-10-21T00:54:43.059Z,5.90
2022-10-21T00:57:11.202Z,6.17
2022-10-21T00:59:45.781Z,5.37
2022-10-21T01:02:12.529Z,5.63
2022-10-21T01:04:39.244Z,5.80
2022-10-21T01:07:05.959Z,6.20
2022-10-21T01:09:32.690Z,5.40
2022-10-21T01:12:01.855Z,6.10
2022-10-21T01:14:34.502Z,6.07
2022-10-21T01:17:44.170Z,5.00
2022-10-21T01:20:50.053Z,6.50
2022-10-21T01:23:28.374Z,7.07
2022-10-21T01:26:01.001Z,6.07
2022-10-21T01:28:43.495Z,5.63
2022-10-21T01:31:48.463Z,5.27
2022-10-21T01:34:38.822Z,5.40
2022-10-21T01:37:10.925Z,5.10
2022-10-21T01:39:49.388Z,5.57
2022-10-21T01:42:33.870Z,5.80
2022-10-21T01:45:13.050Z,6.40
2022-10-21T01:48:01.567Z,6.23
2022-10-21T01:50:33.619Z,5.87
2022-10-21T01:53:05.158Z,5.57
2022-10-21T01:55:33.033Z,5.97
2022-10-21T01:58:05.213Z,5.70
2022-10-21T02:00:35.056Z,5.13
2022-10-21T02:03:05.169Z,5.37
2022-10-21T02:05:34.092Z,6.03
2022-10-21T02:08:01.140Z,6.40
2022-10-21T02:10:31.930Z,7.60
2022-10-21T02:13:02.096Z,7.17
2022-10-21T02:15:30.217Z,7.43
2022-10-21T02:18:08.429Z,6.80
2022-10-21T02:20:39.670Z,7.10
2022-10-21T02:23:09.208Z,6.60
2022-10-21T02:25:40.617Z,6.30
2022-10-21T02:28:08.082Z,6.90
2022-10-21T02:31:04.278Z,6.73
2022-10-21T02:33:48.491Z,6.90
2022-10-21T02:36:23.058Z,7.30
2022-10-21T02:38:58.656Z,6.97
2022-10-21T02:41:27.092Z,6.50
2022-10-21T02:44:02.262Z,6.50
2022-10-21T02:46:37.777Z,7.50
2022-10-21T02:49:04.698Z,6.63
2022-10-21T02:51:31.605Z,8.10
2022-10-21T02:53:59.032Z,6.23
2022-10-21T02:56:26.647Z,6.33
2022-10-21T02:58:54.064Z,7.83
2022-10-21T03:01:20.862Z,7.20
2022-10-21T03:03:47.596Z,7.73
2022-10-21T03:06:14.373Z,5.60
2022-10-21T03:08:41.057Z,5.60
2022-10-21T03:11:07.770Z,7.63
2022-10-21T03:13:34.436Z,6.83
2022-10-21T03:16:01.099Z,7.43
2022-10-21T03:18:27.748Z,6.60
2022-10-21T03:20:54.401Z,7.93
2022-10-21T03:23:21.237Z,7.27
2022-10-21T03:25:48.250Z,6.63
2022-10-21T03:28:14.939Z,6.70
2022-10-21T03:30:41.786Z,6.90
2022-10-21T03:33:08.544Z,6.93
2022-10-21T03:35:35.224Z,7.13
2022-10-21T03:38:02.011Z,7.83
2022-10-21T03:40:30.224Z,7.47
2022-10-21T03:42:58.085Z,7.63
2022-10-21T03:45:25.437Z,7.47
2022-10-21T03:47:52.777Z,8.07
2022-10-21T03:50:23.637Z,6.83
2022-10-21T03:52:52.283Z,6.87
2022-10-21T03:55:20.854Z,7.60
2022-10-21T03:57:48.224Z,7.77
2022-10-21T04:00:15.453Z,8.10
2022-10-21T04:02:42.272Z,6.80
2022-10-21T04:05:09.606Z,7.43
2022-10-21T04:07:36.631Z,6.80
2022-10-21T04:10:04.749Z,7.67
2022-10-21T04:12:31.606Z,8.37
2022-10-21T04:14:58.282Z,8.40
2022-10-21T04:17:24.965Z,7.73
2022-10-21T04:19:51.626Z,7.23
2022-10-21T04:22:18.377Z,7.43
2022-10-21T04:24:45.044Z,7.30
2022-10-21T04:27:12.438Z,8.10
2022-10-21T04:29:39.101Z,8.50
2022-10-21T04:32:05.818Z,8.30
2022-10-21T04:34:32.481Z,6.77
2022-10-21T04:37:01.165Z,7.90
2022-10-21T04:39:30.919Z,7.40
2022-10-21T04:41:57.571Z,7.60
2022-10-21T04:44:24.200Z,7.77
2022-10-21T04:46:50.898Z,7.50
2022-10-21T04:49:17.646Z,7.77
2022-10-21T04:51:44.290Z,8.90
2022-10-21T04:54:11.196Z,8.00
2022-10-21T04:56:37.850Z,8.13
2022-10-21T04:59:04.493Z,7.90
2022-10-21T05:01:31.243Z,7.90
2022-10-21T05:03:58.003Z,7.17
2022-10-21T05:06:24.654Z,7.10
2022-10-21T05:08:51.390Z,7.70
2022-10-21T05:11:18.073Z,7.63
2022-10-21T05:13:45.558Z,7.90
2022-10-21T05:16:12.363Z,7.63
2022-10-21T05:18:39.045Z,7.30
2022-10-21T05:21:05.858Z,7.97
2022-10-21T05:23:32.580Z,8.10
2022-10-21T05:25:59.282Z,7.83
2022-10-21T05:28:25.906Z,8.60
2022-10-21T05:30:53.409Z,7.97
2022-10-21T05:33:20.044Z,8.50
2022-10-21T05:36:05.078Z,7.57
2022-10-21T05:38:31.801Z,8.53
2022-10-21T05:40:59.125Z,8.50
2022-10-21T05:43:27.841Z,9.07
2022-10-21T05:45:54.661Z,8.67
2022-10-21T05:48:21.817Z,7.47
2022-10-21T05:50:52.486Z,8.77
2022-10-21T05:53:19.720Z,8.23
2022-10-21T05:55:54.039Z,7.87
2022-10-21T05:58:20.681Z,8.53
2022-10-21T06:00:48.461Z,8.70
2022-10-21T06:03:15.142Z,9.07
2022-10-21T06:05:41.872Z,8.60
2022-10-21T06:08:08.542Z,8.30
2022-10-21T06:10:35.199Z,8.57
2022-10-21T06:13:02.034Z,8.70
2022-10-21T06:15:28.713Z,8.30
2022-10-21T06:17:55.382Z,9.00
2022-10-21T06:20:22.052Z,7.97
2022-10-21T06:22:48.846Z,8.93
2022-10-21T06:27:47.364Z,9.70
2022-10-21T06:30:14.040Z,7.70
2022-10-21T06:32:40.700Z,8.23
2022-10-21T06:35:07.698Z,7.33
2022-10-21T06:37:34.344Z,7.93
2022-10-21T06:40:01.027Z,6.80
2022-10-21T06:42:27.670Z,7.43
2022-10-21T06:44:56.685Z,7.27
2022-10-21T06:47:26.278Z,6.83
2022-10-21T06:49:53.021Z,7.70
2022-10-21T06:52:19.783Z,7.97
2022-10-21T06:54:46.565Z,6.53
2022-10-21T06:57:13.214Z,6.27
2022-10-21T06:59:39.868Z,6.60
2022-10-21T07:02:06.935Z,6.30
2022-10-21T07:04:33.674Z,6.40
2022-10-21T07:07:00.432Z,6.33
2022-10-21T07:09:27.146Z,6.20
2022-10-21T07:11:54.876Z,6.33
2022-10-21T07:14:21.664Z,5.40
2022-10-21T07:16:48.364Z,6.10
2022-10-21T07:19:15.340Z,5.80
2022-10-21T07:21:42.044Z,6.13
2022-10-21T07:24:10.489Z,6.30
2022-10-21T07:26:37.176Z,6.17
2022-10-21T07:29:04.932Z,5.90
2022-10-21T07:31:34.900Z,6.10
2022-10-21T07:36:37.178Z,7.13
2022-10-21T07:39:08.292Z,6.20
2022-10-21T07:41:38.863Z,6.40
2022-10-21T07:44:06.314Z,6.03
2022-10-21T07:46:33.168Z,6.93
2022-10-21T07:48:59.843Z,6.33
2022-10-21T07:51:28.701Z,7.23
2022-10-21T07:53:59.733Z,6.60
2022-10-21T07:56:39.299Z,6.17
2022-10-21T07:59:11.651Z,5.80
2022-10-21T08:01:44.382Z,7.00
2022-10-21T08:04:14.170Z,6.70
2022-10-21T08:06:41.036Z,7.40
2022-10-21T08:09:07.905Z,6.40
2022-10-21T08:11:34.909Z,6.53
2022-10-21T08:14:03.113Z,6.73
2022-10-21T08:16:29.761Z,7.60
2022-10-21T08:18:59.109Z,7.80
2022-10-21T08:21:25.778Z,7.63
2022-10-21T08:23:52.502Z,7.03
2022-10-21T08:26:19.234Z,6.27
2022-10-21T08:28:45.996Z,6.40
2022-10-21T08:31:16.001Z,8.13
2022-10-21T08:33:43.520Z,6.80
2022-10-21T08:36:15.055Z,6.37
2022-10-21T08:38:41.894Z,6.47
2022-10-21T08:41:38.416Z,7.10
2022-10-21T08:44:22.894Z,5.83
2022-10-21T08:47:13.712Z,5.70
2022-10-21T08:49:40.338Z,7.37
2022-10-21T08:52:12.972Z,6.50
2022-10-21T08:54:48.096Z,5.43
2022-10-21T08:57:15.556Z,6.13
2022-10-21T08:59:42.714Z,6.10
2022-10-21T09:02:32.468Z,5.53
2022-10-21T09:05:30.368Z,6.53
2022-10-21T09:08:12.313Z,5.70
2022-10-21T09:10:42.013Z,5.50
2022-10-21T09:13:41.609Z,5.63
2022-10-21T09:16:25.568Z,5.40
2022-10-21T09:19:32.029Z,5.87
2022-10-21T09:22:22.886Z,6.00
2022-10-21T09:25:17.496Z,6.27
2022-10-21T09:27:55.491Z,5.20
2022-10-21T09:30:23.964Z,5.60
2022-10-21T09:32:56.101Z,5.63
2022-10-21T09:35:36.496Z,5.90
2022-10-21T09:38:11.925Z,5.23
2022-10-21T09:40:38.612Z,5.30
2022-10-21T09:43:11.140Z,5.50
2022-10-21T09:45:43.926Z,6.80
2022-10-21T09:48:19.884Z,6.70
2022-10-21T09:50:49.893Z,7.77
2022-10-21T09:53:31.542Z,8.10
2022-10-21T09:56:23.238Z,7.07
2022-10-21T09:59:12.183Z,7.70
2022-10-21T10:01:41.413Z,7.10
2022-10-21T10:04:30.444Z,9.30
2022-10-21T10:06:59.846Z,9.07
2022-10-21T10:09:34.552Z,10.20
2022-10-21T10:12:02.326Z,9.83
2022-10-21T10:14:31.429Z,10.00
2022-10-21T10:17:18.418Z,9.63
2022-10-21T10:20:05.212Z,14.10
2022-10-21T10:22:41.931Z,10.23
2022-10-21T10:25:14.706Z,10.30
2022-10-21T10:28:00.106Z,11.03
2022-10-21T10:30:42.892Z,10.93
2022-10-21T10:33:17.051Z,10.13
2022-10-21T10:36:03.353Z,9.70
2022-10-21T10:39:09.046Z,10.10
2022-10-21T10:41:39.204Z,9.67
2022-10-21T10:44:30.988Z,10.70
2022-10-21T10:46:59.946Z,12.00
2022-10-21T10:49:28.639Z,10.23
2022-10-21T10:52:06.429Z,10.37
2022-10-21T10:54:33.191Z,10.27
2022-10-21T10:57:20.140Z,9.77
2022-10-21T10:59:55.402Z,9.33
2022-10-21T11:02:38.128Z,10.97
2022-10-21T11:05:26.492Z,10.97
2022-10-21T11:08:30.746Z,11.00
2022-10-21T11:11:04.198Z,11.73
2022-10-21T11:13:33.899Z,12.20
2022-10-21T11:16:27.802Z,10.63
2022-10-21T11:19:17.017Z,10.00
2022-10-21T11:21:54.065Z,10.63
2022-10-21T11:24:28.558Z,10.50
2022-10-21T11:26:58.905Z,10.00
2022-10-21T11:29:44.049Z,11.30
2022-10-21T11:32:19.783Z,11.60
2022-10-21T11:35:01.605Z,9.87
2022-10-21T11:37:31.038Z,11.10
2022-10-21T11:40:15.805Z,11.87
2022-10-21T11:42:46.811Z,10.10
2022-10-21T11:45:32.324Z,9.40
2022-10-21T11:48:07.877Z,9.90
2022-10-21T11:50:56.400Z,9.20
2022-10-21T11:53:39.382Z,9.87
2022-10-21T11:56:28.176Z,10.00
2022-10-21T11:59:01.279Z,10.03
2022-10-21T12:01:47.114Z,9.90
2022-10-21T12:04:28.763Z,14.50
2022-10-21T12:07:08.938Z,10.87
2022-10-21T12:10:21.219Z,8.50
2022-10-21T12:12:50.604Z,8.10
2022-10-21T12:15:35.335Z,8.37
2022-10-21T12:18:04.787Z,7.63
2022-10-21T12:20:33.197Z,7.30
2022-10-21T12:23:06.488Z,5.97
2022-10-21T12:25:48.230Z,6.37
2022-10-21T12:28:47.088Z,6.80
2022-10-21T12:31:32.283Z,6.70
2022-10-21T12:33:59.218Z,6.30
2022-10-21T12:36:46.589Z,6.33
2022-10-21T12:39:17.924Z,5.67
2022-10-21T12:41:47.707Z,4.33
2022-10-21T12:44:25.647Z,4.90
2022-10-21T12:46:56.059Z,4.13
2022-10-21T12:49:26.457Z,4.43
2022-10-21T12:52:18.193Z,4.87
2022-10-21T12:54:58.567Z,4.70
2022-10-21T12:57:34.154Z,3.90
2022-10-21T13:03:09.163Z,5.97
2022-10-21T13:05:38.533Z,7.23
2022-10-21T13:08:20.260Z,14.17
2022-10-21T13:11:09.965Z,4.17
2022-10-21T13:13:37.876Z,6.50
2022-10-21T13:16:19.899Z,4.53
2022-10-21T13:19:26.361Z,4.50
2022-10-21T13:22:35.927Z,4.10
2022-10-21T13:25:26.557Z,4.43
2022-10-21T13:28:12.161Z,4.10
2022-10-21T13:30:56.414Z,4.30
2022-10-21T13:33:29.701Z,6.17
2022-10-21T13:36:10.181Z,4.60
2022-10-21T13:38:46.592Z,3.80
2022-10-21T13:41:30.737Z,3.17
2022-10-21T13:44:05.254Z,3.43
2022-10-21T13:46:43.615Z,2.60
2022-10-21T13:49:32.053Z,3.37
2022-10-21T13:51:59.247Z,2.70
2022-10-21T13:54:33.792Z,4.93
2022-10-21T13:57:06.962Z,2.97
2022-10-21T13:59:34.869Z,2.70
2022-10-21T14:02:02.144Z,4.70
2022-10-21T14:04:31.072Z,3.57
2022-10-21T14:07:04.847Z,3.50
2022-10-21T14:09:40.671Z,3.10
2022-10-21T14:12:27.723Z,2.30
2022-10-21T14:14:57.326Z,2.57
2022-10-21T14:17:27.214Z,2.27
2022-10-21T14:19:58.885Z,3.07
2022-10-21T14:22:29.069Z,3.40
2022-10-21T14:24:57.788Z,12.73
2022-10-21T14:27:29.977Z,2.90
2022-10-21T14:29:58.091Z,4.23
2022-10-21T14:32:26.431Z,1.63
2022-10-21T14:34:59.284Z,2.30
2022-10-21T14:37:25.989Z,4.37
2022-10-21T14:39:52.772Z,1.67
2022-10-21T14:42:24.879Z,2.20
2022-10-21T14:44:55.978Z,2.03
2022-10-21T14:47:25.435Z,1.70
2022-10-21T14:49:55.568Z,2.20
2022-10-21T14:52:32.765Z,1.90
2022-10-21T14:55:02.765Z,1.80
2022-10-21T14:57:48.002Z,1.90
2022-10-21T15:00:30.080Z,1.50
2022-10-21T15:02:59.548Z,1.77
2022-10-21T15:05:32.007Z,1.83
2022-10-21T15:08:20.442Z,1.70
2022-10-21T15:11:05.438Z,1.40
2022-10-21T15:13:33.273Z,1.70
2022-10-21T15:16:01.636Z,1.63
2022-10-21T15:18:38.942Z,1.40
2022-10-21T15:21:05.702Z,1.80
2022-10-21T15:23:42.813Z,1.60
2022-10-21T15:26:15.401Z,1.70
2022-10-21T15:28:42.262Z,1.50
2022-10-21T15:31:19.934Z,2.27
2022-10-21T15:33:48.994Z,1.80
2022-10-21T15:36:16.162Z,1.40
2022-10-21T15:38:48.870Z,1.33
2022-10-21T15:41:18.421Z,1.50
2022-10-21T15:43:54.085Z,1.57
2022-10-21T15:46:21.048Z,1.40
2022-10-21T15:48:47.805Z,1.30
2022-10-21T15:51:14.626Z,1.30
2022-10-21T15:53:44.449Z,1.37
2022-10-21T15:56:19.430Z,1.33
2022-10-21T15:58:46.292Z,1.43
2022-10-21T16:01:15.338Z,1.20
2022-10-21T16:03:42.585Z,1.40
2022-10-21T16:06:20.540Z,1.50
2022-10-21T16:08:48.824Z,1.43
2022-10-21T16:11:25.543Z,1.53
2022-10-21T16:14:01.633Z,1.30
2022-10-21T16:16:28.459Z,1.40
2022-10-21T16:18:55.651Z,1.30
2022-10-21T16:21:23.064Z,1.60
2022-10-21T16:23:49.969Z,1.50
2022-10-21T16:26:25.513Z,1.67
2022-10-21T16:28:53.994Z,1.80
2022-10-21T16:31:21.572Z,2.80
2022-10-21T16:33:48.399Z,2.17
2022-10-21T16:36:16.790Z,2.57
2022-10-21T16:38:44.932Z,2.77
2022-10-21T16:41:13.535Z,2.20
2022-10-21T16:43:41.021Z,1.80
2022-10-21T16:46:24.900Z,1.90
2022-10-21T16:48:52.452Z,1.60
2022-10-21T16:51:20.257Z,1.90
2022-10-21T16:53:46.922Z,2.23
2022-10-21T16:56:13.680Z,1.80
2022-10-21T16:58:40.365Z,1.70
2022-10-21T17:01:08.497Z,1.87
2022-10-21T17:03:35.385Z,1.77
2022-10-21T17:06:02.392Z,1.40
2022-10-21T17:08:29.283Z,1.30
2022-10-21T17:10:56.139Z,1.67
2022-10-21T17:13:22.832Z,1.50
2022-10-21T17:15:49.581Z,1.97
2022-10-21T17:18:16.223Z,1.70
2022-10-21T17:20:43.057Z,1.73
2022-10-21T17:23:10.753Z,2.30
2022-10-21T17:25:37.492Z,1.57
2022-10-21T17:28:04.548Z,1.57
2022-10-21T17:30:31.232Z,1.47
2022-10-21T17:33:00.217Z,2.20
2022-10-21T17:35:26.929Z,2.70
2022-10-21T17:37:53.631Z,2.90
2022-10-21T17:40:26.897Z,2.97
2022-10-21T17:42:53.845Z,3.47
2022-10-21T17:45:21.621Z,2.87
2022-10-21T17:47:49.763Z,5.67
2022-10-21T17:50:23.159Z,19.50
2022-10-21T17:52:51.215Z,5.43
2022-10-21T17:55:18.396Z,3.13
2022-10-21T17:57:45.288Z,3.10
2022-10-21T18:00:12.371Z,3.30
2022-10-21T18:02:39.807Z,2.73
2022-10-21T18:05:08.940Z,3.53
2022-10-21T18:07:35.745Z,2.57
2022-10-21T18:10:02.709Z,2.37
2022-10-21T18:12:30.319Z,1.60
2022-10-21T18:14:57.066Z,5.37
2022-10-21T18:17:23.907Z,5.10
2022-10-21T18:19:51.744Z,3.30
2022-10-21T18:22:18.508Z,2.33
2022-10-21T18:24:45.220Z,3.90
2022-10-21T18:27:12.034Z,3.50
2022-10-21T18:29:38.686Z,2.30
2022-10-21T18:32:05.475Z,3.00
2022-10-21T18:34:32.197Z,2.50
2022-10-21T18:36:59.792Z,1.63
2022-10-21T18:39:26.948Z,1.70
2022-10-21T18:41:53.873Z,3.07
2022-10-21T18:44:20.712Z,2.30
2022-10-21T18:46:50.169Z,6.20
2022-10-21T18:49:19.122Z,2.77
2022-10-21T18:51:45.821Z,2.10
2022-10-21T18:54:13.580Z,1.77
2022-10-21T18:56:41.098Z,2.00
2022-10-21T18:59:07.976Z,1.90
2022-10-21T19:01:34.730Z,1.93
2022-10-21T19:04:01.629Z,1.80
2022-10-21T19:06:33.381Z,1.97
2022-10-21T19:09:01.476Z,2.00
2022-10-21T19:11:29.380Z,2.00
2022-10-21T19:13:56.542Z,1.50
2022-10-21T19:16:23.390Z,1.70
2022-10-21T19:18:50.291Z,1.60
2022-10-21T19:21:19.490Z,1.43
2022-10-21T19:23:46.223Z,1.60
2022-10-21T19:26:14.321Z,1.70
2022-10-21T19:28:41.247Z,1.70
2022-10-21T19:31:10.998Z,1.37
2022-10-21T19:33:39.120Z,1.40
2022-10-21T19:36:07.482Z,1.50
2022-10-21T19:38:50.047Z,1.10
2022-10-21T19:41:19.892Z,1.30
2022-10-21T19:43:47.572Z,1.23
2022-10-21T19:46:20.067Z,1.40
2022-10-21T19:48:49.466Z,1.27
2022-10-21T19:51:18.073Z,1.40
2022-10-21T19:53:45.748Z,1.07
2022-10-21T19:56:13.773Z,1.60
2022-10-21T19:58:40.906Z,1.00
2022-10-21T20:01:10.614Z,1.43
2022-10-21T20:03:41.939Z,1.00
2022-10-21T20:06:17.738Z,1.40
2022-10-21T20:08:44.545Z,1.10
2022-10-21T20:11:14.998Z,1.07
2022-10-21T20:13:43.085Z,0.80
2022-10-21T20:16:21.029Z,1.00
2022-10-21T20:18:47.811Z,1.40
2022-10-21T20:21:14.917Z,1.00
2022-10-21T20:23:41.747Z,1.40
2022-10-21T20:26:08.940Z,1.13
2022-10-21T20:28:35.729Z,1.43
2022-10-21T20:31:08.929Z,1.40
2022-10-21T20:33:38.672Z,1.20
2022-10-21T20:36:07.666Z,1.40
2022-10-21T20:38:34.395Z,1.20
2022-10-21T20:41:06.494Z,1.30
2022-10-21T20:43:38.124Z,1.27
2022-10-21T20:46:09.049Z,1.20
2022-10-21T20:48:39.445Z,1.37
2022-10-21T20:51:12.109Z,1.00
2022-10-21T20:53:40.350Z,1.10
2022-10-21T20:56:07.592Z,0.97
2022-10-21T20:58:36.578Z,0.90
2022-10-21T21:01:22.113Z,1.40
2022-10-21T21:03:50.086Z,1.03
2022-10-21T21:06:17.372Z,1.10
2022-10-21T21:08:48.771Z,0.80
2022-10-21T21:11:20.745Z,1.00
2022-10-21T21:13:48.439Z,1.03
2022-10-21T21:16:17.529Z,1.03
2022-10-21T21:18:50.724Z,1.17
2022-10-21T21:21:19.794Z,1.00
2022-10-21T21:23:46.676Z,1.10
2022-10-21T21:26:17.421Z,0.80
2022-10-21T21:28:44.696Z,0.90
2022-10-21T21:31:12.652Z,1.07
2022-10-21T21:33:39.843Z,1.00
2022-10-21T21:36:06.852Z,1.17
2022-10-21T21:38:34.742Z,1.17
2022-10-21T21:41:02.878Z,1.07
2022-10-21T21:43:31.695Z,0.93
2022-10-21T21:45:58.869Z,1.10
2022-10-21T21:48:26.008Z,2.33
2022-10-21T21:51:00.752Z,1.70
2022-10-21T21:53:27.415Z,1.73
2022-10-21T21:55:54.073Z,1.93
2022-10-21T21:58:20.860Z,1.90
2022-10-21T22:00:47.541Z,1.20
2022-10-21T22:03:14.251Z,1.27
2022-10-21T22:05:40.898Z,1.10
2022-10-21T22:08:07.589Z,1.33
2022-10-21T22:10:34.324Z,0.90
2022-10-21T22:13:01.018Z,1.43
2022-10-21T22:15:47.735Z,1.43
2022-10-21T22:18:14.513Z,1.10
2022-10-21T22:20:41.229Z,1.10
2022-10-21T22:23:08.020Z,1.20
2022-10-21T22:25:35.155Z,0.93
2022-10-21T22:28:01.939Z,1.00
2022-10-21T22:30:28.647Z,0.93
2022-10-21T22:32:55.444Z,1.37
2022-10-21T22:35:22.132Z,1.20
2022-10-21T22:37:48.775Z,0.93
2022-10-21T22:40:15.472Z,1.13
2022-10-21T22:42:42.229Z,2.30
2022-10-21T22:45:09.104Z,2.60
2022-10-21T22:47:35.767Z,2.17
2022-10-21T22:50:02.482Z,1.77
2022-10-21T22:52:30.042Z,1.70
2022-10-21T22:54:57.260Z,2.10
2022-10-21T22:57:23.957Z,2.17
2022-10-21T22:59:53.303Z,1.77
2022-10-21T23:02:20.397Z,1.83
2022-10-21T23:04:47.096Z,2.40
2022-10-21T23:07:13.815Z,2.00
2022-10-21T23:09:40.497Z,2.40
2022-10-21T23:12:07.249Z,2.10
2022-10-21T23:14:33.922Z,1.80
2022-10-21T23:17:00.565Z,1.67
2022-10-21T23:19:27.310Z,1.57
2022-10-21T23:21:53.978Z,1.30
2022-10-21T23:24:21.197Z,1.77
2022-10-21T23:26:47.882Z,1.83
2022-10-21T23:29:14.675Z,1.60
2022-10-21T23:31:42.548Z,1.80
2022-10-21T23:34:09.611Z,1.57
2022-10-21T23:36:36.445Z,1.40
2022-10-21T23:39:04.151Z,1.87
2022-10-21T23:41:30.928Z,1.20
2022-10-21T23:43:57.718Z,2.20
2022-10-21T23:46:24.400Z,1.50
2022-10-21T23:48:51.203Z,1.60
2022-10-21T23:51:18.145Z,1.63
2022-10-21T23:53:44.876Z,2.10
2022-10-21T23:56:11.617Z,1.77
2022-10-21T23:58:38.464Z,1.63
